Time;durP1;ratioP1;P1;durP2;ratioP2;P2;SDS_P1;SDS_P2;PMS_P1;PMS_P2;Temp;Humidity;BMP_temperature;BMP_pressure;BME280_temperature;BME280_humidity;BME280_pressure;Samples;Min_cycle;Max_cycle;Signal;HPM_P1;HPM_P2
2021/11/18 00:01:55;;;;;;;4.80;4.27;;;;;;;7.91;63.83;100272.75;5085751;28;20283;-82
2021/11/18 00:04:23;;;;;;;4.20;3.70;;;;;;;7.94;64.13;100275.03;5067856;28;20548;-81
2021/11/18 00:06:50;;;;;;;4.77;4.27;;;;;;;7.83;64.24;100283.53;5078165;28;20220;-82
2021/11/18 00:09:19;;;;;;;4.50;4.10;;;;;;;7.87;63.87;100276.81;5066052;28;20224;-81
2021/11/18 00:11:50;;;;;;;4.57;4.17;;;;;;;7.98;63.67;100281.66;5049316;28;20307;-81
2021/11/18 00:14:18;;;;;;;4.40;4.00;;;;;;;7.92;63.53;100286.91;5090771;22;20585;-81
2021/11/18 00:16:54;;;;;;;4.57;4.07;;;;;;;7.86;63.45;100269.81;5071826;28;20209;-84
2021/11/18 00:19:22;;;;;;;3.67;3.37;;;;;;;7.96;63.33;100286.34;5084490;28;20248;-82
2021/11/18 00:21:50;;;;;;;4.33;3.93;;;;;;;7.80;64.15;100283.88;5093288;22;20248;-82
2021/11/18 00:24:18;;;;;;;4.30;3.90;;;;;;;7.64;64.22;100276.09;5065757;28;20220;-81
2021/11/18 00:26:45;;;;;;;4.53;4.10;;;;;;;7.61;64.40;100272.94;5068543;28;20250;-81
2021/11/18 00:29:16;;;;;;;4.47;4.07;;;;;;;7.56;64.99;100283.38;5070916;28;20245;-82
2021/11/18 00:31:49;;;;;;;4.23;3.83;;;;;;;7.58;64.50;100286.66;5088343;28;20224;-81
2021/11/18 00:34:18;;;;;;;4.40;4.00;;;;;;;7.59;64.78;100296.31;5089584;28;20643;-82
2021/11/18 00:36:47;;;;;;;4.43;4.03;;;;;;;7.53;64.95;100282.72;5089032;28;20242;-81
2021/11/18 00:39:18;;;;;;;4.47;4.07;;;;;;;7.43;65.51;100292.81;5088908;28;20230;-82
2021/11/18 00:41:47;;;;;;;5.27;3.80;;;;;;;7.47;65.12;100298.59;5089300;28;20256;-81
2021/11/18 00:44:18;;;;;;;4.43;4.03;;;;;;;7.39;65.54;100290.69;5074904;23;20256;-82
2021/11/18 00:46:45;;;;;;;3.97;3.57;;;;;;;7.28;65.37;100275.97;5070618;28;20228;-81
2021/11/18 00:49:13;;;;;;;4.23;3.83;;;;;;;7.48;64.56;100298.44;5052152;28;20185;-81
2021/11/18 00:51:48;;;;;;;4.37;3.60;;;;;;;7.41;65.39;100294.84;5101274;23;20225;-82
2021/11/18 00:54:16;;;;;;;4.10;3.70;;;;;;;7.44;64.64;100293.66;5056020;28;20213;-81
2021/11/18 00:56:43;;;;;;;3.70;3.30;;;;;;;7.40;64.87;100293.19;5088782;28;20201;-82
2021/11/18 00:59:16;;;;;;;4.20;3.33;;;;;;;7.38;65.26;100294.38;5089369;28;20236;-81
2021/11/18 01:01:45;;;;;;;4.73;3.40;;;;;;;7.23;64.93;100277.56;5055517;28;20189;-82
2021/11/18 01:04:16;;;;;;;3.63;3.33;;;;;;;7.33;64.99;100300.25;5069865;28;20255;-82
2021/11/18 01:06:43;;;;;;;3.27;2.97;;;;;;;7.19;65.57;100281.56;5086853;28;20224;-82
2021/11/18 01:09:14;;;;;;;3.30;3.00;;;;;;;7.23;65.18;100289.03;5069715;23;20237;-84
2021/11/18 01:11:42;;;;;;;3.77;3.47;;;;;;;7.26;65.18;100294.00;5061982;28;20223;-82
2021/11/18 01:14:13;;;;;;;3.50;3.20;;;;;;;7.44;64.40;100302.47;5064239;28;20217;-82
2021/11/18 01:16:44;;;;;;;3.07;2.77;;;;;;;7.49;64.51;100304.59;5032321;28;20243;-81
2021/11/18 01:19:12;;;;;;;3.30;3.00;;;;;;;7.50;64.18;100311.59;5077215;22;20229;-82
2021/11/18 01:21:41;;;;;;;4.60;2.90;;;;;;;7.45;64.44;100317.47;5029553;28;20230;-83
2021/11/18 01:24:09;;;;;;;3.40;3.10;;;;;;;7.49;64.69;100321.44;5030982;28;20222;-82
2021/11/18 01:26:57;;;;;;;3.00;2.80;;;;;;;7.53;64.33;100314.72;5048292;28;20256;-81
2021/11/18 01:29:29;;;;;;;3.53;3.23;;;;;;;7.70;63.64;100306.53;5033316;28;20226;-81
2021/11/18 01:31:58;;;;;;;4.83;3.07;;;;;;;7.72;63.54;100307.16;5030396;23;20227;-81
2021/11/18 01:34:34;;;;;;;3.40;3.10;;;;;;;7.78;63.85;100298.44;5039742;28;20243;-82
2021/11/18 01:37:02;;;;;;;3.20;2.90;;;;;;;7.83;63.24;100304.03;5022832;28;20231;-82
2021/11/18 01:39:30;;;;;;;3.37;3.07;;;;;;;7.85;63.18;100302.84;5040490;28;20281;-82
2021/11/18 01:42:05;;;;;;;4.10;3.00;;;;;;;8.01;62.96;100303.66;5042871;28;20255;-82
2021/11/18 01:44:45;;;;;;;3.73;3.20;;;;;;;7.97;63.08;100305.88;5009712;28;20242;-81
2021/11/18 01:47:35;;;;;;;3.80;3.30;;;;;;;8.10;62.20;100300.69;5023073;28;20188;-81
2021/11/18 01:50:07;;;;;;;4.50;3.63;;;;;;;8.08;62.38;100299.19;5042793;28;20239;-82
2021/11/18 01:52:39;;;;;;;3.40;3.10;;;;;;;8.06;62.81;100296.75;5024463;28;20240;-82
2021/11/18 01:55:08;;;;;;;3.70;3.30;;;;;;;8.04;62.92;100301.44;5008846;28;20183;-81
2021/11/18 01:57:36;;;;;;;3.77;3.47;;;;;;;8.13;62.66;100299.47;5023732;28;20259;-82
2021/11/18 02:00:32;;;;;;;3.70;3.37;;;;;;;8.05;63.16;100286.25;5023655;28;20274;-82
2021/11/18 02:03:01;;;;;;;4.03;3.40;;;;;;;8.07;63.05;100292.25;5025911;23;20238;-82
2021/11/18 02:06:25;;;;;;;3.40;2.93;;;;;;;8.12;62.64;100292.50;5045714;22;20216;-82
2021/11/18 02:08:54;;;;;;;3.53;2.80;;;;;;;8.10;63.00;100297.19;5066405;28;20228;-81
2021/11/18 02:11:57;;;;;;;3.37;3.07;;;;;;;8.21;62.37;100297.50;5083235;28;20229;-81
2021/11/18 02:14:26;;;;;;;3.47;3.00;;;;;;;8.20;62.51;100292.38;5076425;22;20227;-81
2021/11/18 02:17:00;;;;;;;2.93;2.63;;;;;;;8.10;63.07;100290.00;5070918;28;20213;-82
2021/11/18 02:19:30;;;;;;;2.90;2.60;;;;;;;8.24;62.49;100294.50;5069473;28;20238;-81
2021/11/18 02:21:57;;;;;;;3.30;2.90;;;;;;;8.13;62.34;100289.63;5068377;28;20225;-81
2021/11/18 02:24:41;;;;;;;3.40;2.90;;;;;;;8.16;62.64;100301.78;5070108;28;20286;-82
2021/11/18 02:27:19;;;;;;;3.60;2.97;;;;;;;8.15;62.94;100308.97;5086637;28;20686;-82
2021/11/18 02:29:48;;;;;;;3.03;2.73;;;;;;;8.16;62.61;100307.13;5067373;28;20282;-81
2021/11/18 02:32:20;;;;;;;3.80;2.70;;;;;;;8.20;62.76;100308.41;5071640;23;20236;-82
2021/11/18 02:34:58;;;;;;;2.90;2.60;;;;;;;8.19;62.48;100314.75;5049442;28;20540;-80
2021/11/18 02:37:26;;;;;;;3.00;2.70;;;;;;;8.20;62.30;100319.91;5083953;28;20255;-81
2021/11/18 02:39:53;;;;;;;2.77;2.53;;;;;;;8.25;62.70;100330.03;5050587;28;20239;-82
2021/11/18 02:42:21;;;;;;;3.17;2.87;;;;;;;8.17;62.62;100325.59;5047518;28;20225;-82
2021/11/18 02:44:51;;;;;;;3.10;2.80;;;;;;;8.12;62.43;100311.97;5067185;28;20686;-82
2021/11/18 02:47:20;;;;;;;3.07;2.77;;;;;;;8.26;62.82;100331.66;5065894;28;20209;-80
2021/11/18 02:49:50;;;;;;;3.67;3.20;;;;;;;8.20;62.76;100335.09;5065666;28;20697;-81
2021/11/18 02:52:28;;;;;;;3.60;3.03;;;;;;;8.17;62.82;100319.44;5082285;28;20663;-82
2021/11/18 02:54:59;;;;;;;4.13;3.73;;;;;;;8.17;62.93;100333.59;5067700;28;20524;-81
2021/11/18 02:57:29;;;;;;;4.70;3.27;;;;;;;8.11;62.99;100326.38;5066726;28;20221;-82
2021/11/18 02:59:57;;;;;;;3.73;3.27;;;;;;;8.10;63.25;100334.56;5069501;23;20221;-81
2021/11/18 03:02:24;;;;;;;3.30;3.00;;;;;;;8.09;63.42;100331.06;5045131;28;20198;-82
2021/11/18 03:04:52;;;;;;;3.30;3.00;;;;;;;8.13;62.78;100324.31;5046879;28;20252;-81
2021/11/18 03:07:19;;;;;;;4.30;3.00;;;;;;;8.10;63.48;100316.69;5028238;28;20222;-83
2021/11/18 03:09:48;;;;;;;3.20;2.90;;;;;;;8.03;63.37;100333.63;5039895;28;20245;-82
2021/11/18 03:12:18;;;;;;;3.30;3.00;;;;;;;8.18;62.98;100340.59;5043372;28;20317;-81
2021/11/18 03:14:46;;;;;;;3.40;3.10;;;;;;;8.03;63.38;100325.63;5011705;28;20632;-81
2021/11/18 03:17:14;;;;;;;3.20;2.90;;;;;;;7.97;64.01;100329.88;5059201;23;20304;-82
2021/11/18 03:20:10;;;;;;;3.50;3.20;;;;;;;7.91;64.22;100346.63;5052301;28;20245;-82
2021/11/18 03:22:39;;;;;;;3.40;3.10;;;;;;;7.87;64.48;100348.00;5044188;28;20233;-82
2021/11/18 03:25:10;;;;;;;3.50;3.20;;;;;;;7.81;64.37;100346.06;5014480;28;20209;-82
2021/11/18 03:27:37;;;;;;;3.53;3.23;;;;;;;7.74;64.59;100339.84;5027694;28;20221;-83
2021/11/18 03:30:06;;;;;;;3.33;3.03;;;;;;;7.70;64.88;100342.00;5045643;28;20282;-81
2021/11/18 03:32:37;;;;;;;4.37;3.43;;;;;;;7.64;65.45;100347.28;5029044;28;20222;-81
2021/11/18 03:35:06;;;;;;;3.90;3.60;;;;;;;7.51;65.58;100340.72;5044854;28;20215;-81
2021/11/18 03:37:34;;;;;;;3.77;3.47;;;;;;;7.38;66.25;100353.84;5045724;28;20255;-82
2021/11/18 03:40:03;;;;;;;3.83;3.53;;;;;;;7.42;65.79;100351.66;5045701;28;20232;-82
2021/11/18 03:42:29;;;;;;;4.30;3.90;;;;;;;7.39;66.17;100336.84;5029798;28;20592;-80
2021/11/18 03:44:56;;;;;;;4.10;3.70;;;;;;;7.39;65.93;100349.34;5062084;28;20278;-83
2021/11/18 03:47:23;;;;;;;4.27;3.83;;;;;;;7.46;65.30;100350.31;5063008;28;20228;-82
2021/11/18 03:49:50;;;;;;;4.53;4.03;;;;;;;7.48;65.83;100354.44;5049154;23;20299;-82
2021/11/18 03:52:18;;;;;;;4.67;4.17;;;;;;;7.47;65.84;100351.94;5042193;28;20206;-81
2021/11/18 03:58:11;;;;;;;4.70;4.30;;;;;;;7.41;66.72;100356.19;5045181;28;20253;-81
2021/11/18 04:00:40;;;;;;;4.30;3.90;;;;;;;7.42;66.55;100359.63;5059931;28;20217;-82
2021/11/18 04:03:11;;;;;;;4.60;4.20;;;;;;;7.55;66.22;100356.38;5073598;22;20213;-82
2021/11/18 04:05:41;;;;;;;4.50;4.10;;;;;;;7.49;66.48;100363.25;5043078;28;20262;-82
2021/11/18 04:08:08;;;;;;;6.37;3.80;;;;;;;7.50;66.68;100365.75;5041772;28;20237;-82
2021/11/18 04:10:39;;;;;;;5.33;4.37;;;;;;;7.62;66.53;100371.44;5041354;28;20252;-81
2021/11/18 04:13:07;;;;;;;4.67;3.77;;;;;;;7.53;66.81;100376.03;5067013;23;20258;-81
2021/11/18 04:15:35;;;;;;;4.57;4.17;;;;;;;7.46;67.28;100377.78;5080727;28;20532;-82
2021/11/18 04:18:06;;;;;;;4.87;4.13;;;;;;;7.43;67.40;100379.97;5063246;23;20336;31
2021/11/18 04:20:37;;;;;;;4.87;4.37;;;;;;;7.41;67.88;100379.34;4999515;28;20630;-82
2021/11/18 04:23:04;;;;;;;4.97;4.47;;;;;;;7.40;67.81;100375.00;4987254;28;20267;-81
2021/11/18 04:25:35;;;;;;;4.60;4.20;;;;;;;7.36;67.74;100379.06;4987153;28;20606;-84
2021/11/18 04:28:02;;;;;;;4.93;4.53;;;;;;;7.28;68.52;100371.94;4987502;28;20215;-82
2021/11/18 04:30:34;;;;;;;4.60;4.20;;;;;;;7.29;68.61;100368.28;4986987;28;20238;-81
2021/11/18 04:33:30;;;;;;;4.90;4.20;;;;;;;7.24;68.71;100375.16;5002240;28;20235;-82
2021/11/18 04:35:59;;;;;;;5.07;4.20;;;;;;;7.35;69.11;100370.22;5056756;23;20233;-82
2021/11/18 04:38:27;;;;;;;5.03;4.27;;;;;;;7.34;68.82;100367.72;5018246;28;20221;-82
2021/11/18 04:40:55;;;;;;;4.20;3.77;;;;;;;7.42;67.88;100367.63;5054462;23;20251;-81
2021/11/18 04:43:24;;;;;;;4.73;4.33;;;;;;;7.43;68.21;100375.47;5023746;28;20229;-82
2021/11/18 04:46:01;;;;;;;4.40;4.00;;;;;;;7.43;68.16;100372.81;5066572;28;20225;-81
2021/11/18 04:48:32;;;;;;;4.60;4.00;;;;;;;7.62;67.24;100381.28;5033766;28;20225;-82
2021/11/18 04:51:00;;;;;;;4.90;4.40;;;;;;;7.52;67.55;100386.88;5087525;23;20231;-81
2021/11/18 04:53:28;;;;;;;4.63;4.13;;;;;;;7.58;67.56;100391.50;5089654;28;20265;-82
2021/11/18 04:56:01;;;;;;;5.23;4.73;;;;;;;7.53;68.06;100396.53;5070848;28;20285;-81
2021/11/18 04:58:37;;;;;;;5.13;4.63;;;;;;;7.59;67.86;100397.66;5087322;28;20506;-81
2021/11/18 05:01:06;;;;;;;5.40;4.90;;;;;;;7.63;67.59;100413.13;5086548;28;20232;-82
2021/11/18 05:03:35;;;;;;;5.83;5.23;;;;;;;7.55;67.67;100404.38;5072869;28;20287;-82
2021/11/18 05:06:02;;;;;;;5.40;4.90;;;;;;;7.47;68.36;100391.94;5069978;28;20240;-82
2021/11/18 05:08:31;;;;;;;7.23;5.10;;;;;;;7.64;68.04;100411.28;5088825;28;20277;-82
2021/11/18 05:10:59;;;;;;;5.30;4.80;;;;;;;7.59;68.14;100405.66;5069244;28;20235;-82
2021/11/18 05:13:29;;;;;;;5.80;5.20;;;;;;;7.70;67.97;100415.91;5107909;28;20220;-84
2021/11/18 05:16:06;;;;;;;5.40;4.90;;;;;;;7.64;67.40;100416.63;5091500;28;20659;-82
2021/11/18 05:18:33;;;;;;;5.73;5.10;;;;;;;7.64;68.13;100404.13;5076506;28;20254;-82
2021/11/18 05:21:01;;;;;;;5.97;5.37;;;;;;;7.70;67.83;100418.56;5103599;28;20235;-82
2021/11/18 05:23:34;;;;;;;6.03;5.00;;;;;;;7.65;67.75;100407.63;5074700;28;20643;-82
2021/11/18 05:26:02;;;;;;;5.87;4.90;;;;;;;7.75;67.22;100429.50;5105176;28;20246;-82
2021/11/18 05:28:30;;;;;;;6.40;5.80;;;;;;;7.65;67.63;100419.06;5089478;28;20247;-81
2021/11/18 05:31:00;;;;;;;6.13;5.50;;;;;;;7.63;67.25;100439.78;5075222;28;20236;-82
2021/11/18 05:33:30;;;;;;;5.97;5.17;;;;;;;7.63;67.86;100442.44;5073218;28;20267;-82
2021/11/18 05:36:03;;;;;;;5.50;5.00;;;;;;;7.70;67.02;100438.03;5090443;28;20596;-81
2021/11/18 05:38:29;;;;;;;6.10;5.07;;;;;;;7.70;66.94;100440.69;5073911;28;20224;-81
2021/11/18 05:40:57;;;;;;;5.97;5.37;;;;;;;7.60;67.56;100440.16;5090859;28;20227;-84
2021/11/18 05:43:27;;;;;;;6.03;5.43;;;;;;;7.64;67.67;100453.97;5073573;28;20251;-81
2021/11/18 05:45:55;;;;;;;5.77;5.23;;;;;;;7.52;67.88;100449.03;5075293;28;20572;-82
2021/11/18 05:48:28;;;;;;;6.13;5.53;;;;;;;7.61;67.52;100443.63;5091235;28;20525;-81
2021/11/18 05:50:59;;;;;;;7.00;5.57;;;;;;;7.70;67.19;100455.91;5092177;28;20220;-81
2021/11/18 05:53:29;;;;;;;6.53;5.93;;;;;;;7.67;67.30;100457.09;5093366;28;20231;-82
2021/11/18 05:56:03;;;;;;;6.77;6.03;;;;;;;7.62;67.83;100467.47;5073510;28;20265;-82
2021/11/18 05:58:33;;;;;;;6.30;5.70;;;;;;;7.73;67.69;100482.22;5072553;23;20229;-81
2021/11/18 06:01:02;;;;;;;6.20;5.60;;;;;;;7.67;67.27;100478.41;5051199;28;20240;-81
2021/11/18 06:03:30;;;;;;;6.60;5.97;;;;;;;7.70;67.17;100482.59;5068798;28;20530;-83
2021/11/18 06:05:59;;;;;;;7.17;5.60;;;;;;;7.82;67.53;100491.78;5049642;28;20251;-81
2021/11/18 06:08:29;;;;;;;6.90;6.20;;;;;;;7.70;67.63;100477.25;5085993;28;20357;-82
2021/11/18 06:11:05;;;;;;;6.97;6.27;;;;;;;7.77;68.04;100489.66;5095999;23;20262;-81
2021/11/18 06:13:34;;;;;;;6.67;5.97;;;;;;;7.73;68.92;100485.72;5086727;28;20311;-81
2021/11/18 06:16:06;;;;;;;6.97;6.00;;;;;;;7.76;69.11;100504.00;5090654;23;20231;-82
2021/11/18 06:18:54;;;;;;;6.47;5.87;;;;;;;7.73;69.22;100495.56;5091708;28;20246;-82
2021/11/18 06:21:30;;;;;;;6.70;5.93;;;;;;;7.68;69.20;100501.41;5102950;28;20736;-81
2021/11/18 06:23:58;;;;;;;6.73;6.13;;;;;;;7.58;68.99;100484.00;5090990;22;20256;-82
2021/11/18 06:26:28;;;;;;;7.97;6.83;;;;;;;7.61;69.33;100513.81;5050472;28;20225;-81
2021/11/18 06:28:59;;;;;;;6.57;5.87;;;;;;;7.61;70.24;100518.31;5035448;28;20197;-82
2021/11/18 06:31:29;;;;;;;7.40;6.33;;;;;;;7.53;69.98;100520.03;5067473;28;20228;-81
2021/11/18 06:33:57;;;;;;;7.50;6.40;;;;;;;7.63;69.50;100526.97;5049814;28;20308;-81
2021/11/18 06:36:28;;;;;;;7.00;6.30;;;;;;;7.70;70.01;100538.59;5065105;23;20220;-82
2021/11/18 06:38:56;;;;;;;7.00;6.30;;;;;;;7.69;69.84;100529.75;5075918;28;20228;-82
2021/11/18 06:41:29;;;;;;;6.63;5.90;;;;;;;7.78;69.54;100544.69;5110661;28;20223;-82
2021/11/18 06:44:04;;;;;;;7.03;6.43;;;;;;;7.83;70.07;100552.16;5109774;28;20617;-81
2021/11/18 06:46:40;;;;;;;7.50;6.57;;;;;;;7.76;70.73;100551.19;5066372;23;20312;-82
2021/11/18 06:49:10;;;;;;;6.87;6.23;;;;;;;7.70;71.38;100554.59;5042791;28;20237;-82
2021/11/18 06:51:42;;;;;;;6.97;6.27;;;;;;;7.72;71.65;100557.91;5063167;28;20224;-81
2021/11/18 06:54:17;;;;;;;6.97;6.37;;;;;;;7.83;70.95;100557.50;5068749;28;20223;-82
2021/11/18 06:56:51;;;;;;;6.93;6.23;;;;;;;7.73;71.58;100560.41;5052763;28;20243;-81
2021/11/18 07:03:11;;;;;;;6.00;5.27;;;;;;;7.86;70.52;100576.63;5069612;28;20251;-82
2021/11/18 07:05:43;;;;;;;6.13;5.53;;;;;;;7.78;70.41;100563.38;5051241;28;20656;-82
2021/11/18 07:08:35;;;;;;;5.80;5.23;;;;;;;7.78;70.62;100575.88;5037703;28;20280;-82
2021/11/18 07:11:07;;;;;;;6.30;5.70;;;;;;;7.88;70.11;100579.97;5090653;23;20232;-81
2021/11/18 07:13:39;;;;;;;5.43;4.93;;;;;;;7.93;69.76;100568.75;5093537;23;20225;-81
2021/11/18 07:16:12;;;;;;;5.50;4.93;;;;;;;8.01;69.20;100567.84;5116089;22;20299;-81
2021/11/18 07:18:50;;;;;;;5.50;4.93;;;;;;;7.94;68.71;100549.03;5110128;28;20251;-81
2021/11/18 07:21:26;;;;;;;5.27;4.70;;;;;;;8.04;68.95;100578.16;5105700;28;20223;-81
2021/11/18 07:23:56;;;;;;;4.90;4.50;;;;;;;8.12;68.46;100578.09;5072003;28;20224;-81
2021/11/18 07:26:31;;;;;;;4.33;3.93;;;;;;;8.19;68.22;100589.69;5041579;23;20229;-82
2021/11/18 07:29:08;;;;;;;4.00;3.60;;;;;;;8.33;67.74;100576.41;5056162;23;20193;31
2021/11/18 07:31:39;;;;;;;4.50;4.10;;;;;;;8.38;67.64;100582.03;5041329;23;20229;-81
2021/11/18 07:34:11;;;;;;;4.37;3.97;;;;;;;8.37;67.52;100584.88;5073231;28;20282;-81
2021/11/18 07:36:43;;;;;;;4.13;3.73;;;;;;;8.34;67.01;100567.38;5054057;28;20241;-82
2021/11/18 07:39:21;;;;;;;3.90;3.50;;;;;;;8.52;66.78;100582.22;5051486;28;20237;-81
2021/11/18 07:42:00;;;;;;;4.23;3.83;;;;;;;8.56;66.33;100565.66;5070209;28;20225;-82
2021/11/18 07:44:52;;;;;;;3.60;3.30;;;;;;;8.57;66.49;100563.81;5063313;28;20225;-81
2021/11/18 07:47:41;;;;;;;3.67;3.37;;;;;;;8.64;66.27;100570.88;5067599;28;20647;-82
2021/11/18 07:50:18;;;;;;;3.70;3.40;;;;;;;8.78;65.59;100562.03;5156300;22;20202;-81
2021/11/18 07:52:46;;;;;;;3.93;3.53;;;;;;;8.82;65.55;100559.81;5009916;28;20563;-82
2021/11/18 07:55:21;;;;;;;3.30;3.00;;;;;;;8.93;65.30;100571.91;5047430;28;20241;-81
2021/11/18 07:57:53;;;;;;;3.27;2.97;;;;;;;9.01;65.03;100561.94;5047975;28;20214;-81
2021/11/18 08:00:26;;;;;;;3.27;3.00;;;;;;;9.31;63.92;100580.59;5043351;23;20229;-82
2021/11/18 08:03:12;;;;;;;3.27;2.97;;;;;;;9.47;63.69;100577.69;5150179;23;20243;-82
2021/11/18 08:06:01;;;;;;;4.77;3.00;;;;;;;9.42;63.18;100578.28;5084825;28;20274;-82
2021/11/18 08:08:28;;;;;;;2.87;2.67;;;;;;;9.44;62.97;100578.88;5086246;28;20229;-82
2021/11/18 08:10:58;;;;;;;3.57;3.27;;;;;;;9.46;63.12;100590.25;5043072;23;20218;-82
2021/11/18 08:13:28;;;;;;;3.43;3.13;;;;;;;9.56;62.57;100585.41;5063924;28;20247;-82
2021/11/18 08:15:56;;;;;;;3.00;2.70;;;;;;;9.59;62.70;100593.06;5062493;28;20316;-82
2021/11/18 08:18:26;;;;;;;3.53;2.80;;;;;;;9.41;63.22;100589.97;5030084;28;20229;-82
2021/11/18 08:20:55;;;;;;;3.20;2.90;;;;;;;9.46;62.93;100592.09;5078541;28;20311;-82
2021/11/18 08:23:23;;;;;;;4.07;3.23;;;;;;;9.54;62.50;100606.16;5047726;28;20209;-82
2021/11/18 08:25:50;;;;;;;2.80;2.60;;;;;;;9.65;62.28;100600.31;5079058;23;20222;-82
2021/11/18 08:28:22;;;;;;;3.50;3.20;;;;;;;9.70;61.84;100594.41;5045301;28;20264;-80
2021/11/18 08:30:50;;;;;;;3.13;2.80;;;;;;;9.70;61.21;100597.88;5029368;28;20247;-80
2021/11/18 08:33:18;;;;;;;4.07;2.97;;;;;;;9.67;62.04;100603.63;5062635;28;20229;-79
2021/11/18 08:35:48;;;;;;;3.10;2.80;;;;;;;9.69;61.96;100590.91;5048194;28;20316;-80
2021/11/18 08:38:17;;;;;;;3.30;2.93;;;;;;;9.81;61.91;100599.22;5046147;28;20217;-79
2021/11/18 08:40:52;;;;;;;3.30;3.00;;;;;;;9.89;61.11;100607.13;5043083;28;20694;-80
2021/11/18 08:43:22;;;;;;;3.47;2.83;;;;;;;9.83;61.37;100604.41;5081946;28;20282;-80
2021/11/18 08:45:52;;;;;;;3.27;2.97;;;;;;;10.00;60.74;100603.13;5049328;28;20267;-80
2021/11/18 08:48:21;;;;;;;3.30;3.10;;;;;;;9.91;61.14;100590.88;5068040;28;20244;-80
2021/11/18 08:51:08;;;;;;;3.33;3.07;;;;;;;10.13;60.62;100609.41;5087634;28;20229;-82
2021/11/18 08:53:40;;;;;;;3.53;3.23;;;;;;;10.24;60.10;100601.91;5069877;28;20205;-80
2021/11/18 08:56:10;;;;;;;4.03;3.07;;;;;;;10.35;60.36;100606.75;5050726;28;20233;-79
2021/11/18 08:58:44;;;;;;;3.47;3.17;;;;;;;10.31;60.16;100605.50;5067401;28;20228;-79
2021/11/18 09:01:24;;;;;;;3.90;3.03;;;;;;;10.33;60.21;100608.78;5050897;28;20228;-79
2021/11/18 09:03:53;;;;;;;3.00;2.70;;;;;;;10.39;59.13;100605.34;5016947;28;20233;-80
2021/11/18 09:06:23;;;;;;;3.53;3.20;;;;;;;10.45;58.91;100613.41;5067195;28;20229;-79
2021/11/18 09:08:57;;;;;;;2.93;2.73;;;;;;;10.57;58.48;100609.19;5066987;28;20220;-80
2021/11/18 09:11:26;;;;;;;4.03;3.30;;;;;;;10.75;58.41;100622.06;5083215;28;20233;-79
2021/11/18 09:13:55;;;;;;;3.63;3.33;;;;;;;10.88;58.17;100613.28;5036367;28;20216;-80
2021/11/18 09:16:26;;;;;;;3.37;3.07;;;;;;;10.99;56.82;100607.38;5032483;28;20225;-80
2021/11/18 09:19:17;;;;;;;3.37;3.10;;;;;;;11.18;56.74;100619.22;5053703;28;20226;-80
2021/11/18 09:21:44;;;;;;;3.47;3.17;;;;;;;11.29;56.88;100626.72;5065058;28;20205;-80
2021/11/18 09:24:24;;;;;;;3.10;2.90;;;;;;;11.21;56.64;100630.38;5050095;28;20578;-81
2021/11/18 09:26:56;;;;;;;3.50;3.00;;;;;;;11.18;56.82;100624.59;5065284;28;20224;-80
2021/11/18 09:29:30;;;;;;;3.33;3.03;;;;;;;10.98;57.41;100624.47;5048732;28;20598;-79
2021/11/18 09:32:29;;;;;;;3.30;3.00;;;;;;;11.38;56.71;100634.34;5031092;23;20235;-79
2021/11/18 09:35:11;;;;;;;2.87;2.67;;;;;;;11.45;55.76;100634.38;4994308;28;20217;-80
2021/11/18 09:37:42;;;;;;;3.00;2.70;;;;;;;11.58;55.67;100622.88;4991394;28;20646;-80
2021/11/18 09:40:13;;;;;;;3.30;3.00;;;;;;;11.67;55.41;100627.00;5037960;23;20219;-80
2021/11/18 09:43:20;;;;;;;2.87;2.67;;;;;;;11.91;55.25;100621.13;5052998;28;20523;-80
2021/11/18 09:45:57;;;;;;;2.70;2.50;;;;;;;11.84;53.91;100620.28;5088293;23;20220;-80
2021/11/18 09:48:54;;;;;;;2.90;2.50;;;;;;;12.06;53.61;100620.94;5074271;23;20620;-80
2021/11/18 09:51:40;;;;;;;2.80;2.50;;;;;;;12.16;53.41;100626.75;5069861;28;20647;-80
2021/11/18 09:54:49;;;;;;;2.77;2.50;;;;;;;11.95;54.35;100616.16;5063820;28;20512;-80
2021/11/18 09:57:39;;;;;;;2.50;2.30;;;;;;;11.86;53.51;100611.00;5054303;28;20568;-80
2021/11/18 10:00:29;;;;;;;2.60;2.30;;;;;;;11.90;53.61;100614.09;5048085;28;20202;-80
2021/11/18 10:03:08;;;;;;;2.50;2.30;;;;;;;11.85;53.69;100622.75;5081041;28;20229;-80
2021/11/18 10:05:55;;;;;;;2.63;2.40;;;;;;;12.03;53.62;100622.19;5061676;28;20220;-79
2021/11/18 10:09:07;;;;;;;2.53;2.33;;;;;;;11.85;53.64;100609.34;5065781;28;20216;-80
2021/11/18 10:11:55;;;;;;;2.50;2.30;;;;;;;11.65;53.97;100613.81;5074010;23;20227;-80
2021/11/18 10:14:23;;;;;;;2.60;2.40;;;;;;;11.61;54.25;100617.94;5066474;28;20493;-80
2021/11/18 10:17:14;;;;;;;2.43;1.90;;;;;;;11.62;54.16;100614.22;5071016;23;20298;-80
2021/11/18 10:19:59;;;;;;;2.33;2.13;;;;;;;11.71;54.65;100617.56;5061785;28;20276;-80
2021/11/18 10:22:28;;;;;;;2.40;2.20;;;;;;;11.60;54.51;100618.13;5030094;28;20221;-80
2021/11/18 10:24:58;;;;;;;2.50;2.30;;;;;;;11.51;54.09;100609.44;5050323;28;20231;-80
2021/11/18 10:27:52;;;;;;;2.50;2.17;;;;;;;11.35;54.08;100602.56;5070195;22;20236;-80
2021/11/18 10:30:41;;;;;;;2.10;1.90;;;;;;;11.29;54.43;100599.88;5033566;28;20238;-83
2021/11/18 10:33:10;;;;;;;2.77;2.30;;;;;;;11.23;55.43;100595.31;5043574;28;20257;-80
2021/11/18 10:35:43;;;;;;;2.17;1.97;;;;;;;11.41;54.53;100596.41;5044517;28;20280;-81
2021/11/18 10:38:21;;;;;;;2.07;1.87;;;;;;;11.09;54.72;100593.59;5060486;28;20288;-80
2021/11/18 10:40:58;;;;;;;2.83;2.10;;;;;;;10.98;55.01;100569.00;5056111;28;20229;-80
2021/11/18 10:43:28;;;;;;;1.87;1.73;;;;;;;11.14;55.07;100578.56;5044579;28;20229;-80
2021/11/18 10:46:21;;;;;;;2.00;1.80;;;;;;;11.13;54.70;100579.59;5043850;28;20233;-80
2021/11/18 10:48:59;;;;;;;2.60;2.20;;;;;;;11.23;54.23;100569.31;5078948;23;20220;-79
2021/11/18 10:51:55;;;;;;;2.20;2.00;;;;;;;11.39;53.46;100587.72;5053396;28;20254;-80
2021/11/18 10:54:41;;;;;;;2.30;2.00;;;;;;;11.71;53.45;100583.47;5085807;28;20216;-80
2021/11/18 10:57:14;;;;;;;2.33;2.13;;;;;;;11.90;52.70;100577.31;5071908;28;20321;-81
2021/11/18 10:59:45;;;;;;;2.90;1.90;;;;;;;11.97;52.18;100561.22;5087093;28;20227;-81
2021/11/18 11:02:23;;;;;;;2.10;2.00;;;;;;;12.10;52.42;100579.19;5071323;28;20224;-80
2021/11/18 11:04:54;;;;;;;2.23;2.03;;;;;;;12.46;51.94;100578.78;5104676;28;20319;-81
2021/11/18 11:07:40;;;;;;;2.80;2.23;;;;;;;12.31;51.74;100563.72;5071438;28;20257;-80
2021/11/18 11:10:18;;;;;;;2.30;2.10;;;;;;;12.23;52.28;100579.19;5052629;28;20212;-79
2021/11/18 11:13:02;;;;;;;3.10;2.20;;;;;;;12.35;52.45;100583.75;5087621;28;20230;-79
2021/11/18 11:15:54;;;;;;;2.30;2.10;;;;;;;12.21;52.25;100576.72;5085085;28;20220;-80
2021/11/18 11:18:42;;;;;;;3.17;2.87;;;;;;;12.57;52.01;100588.88;5083500;28;20286;-79
2021/11/18 11:21:32;;;;;;;3.30;2.80;;;;;;;12.60;51.39;100583.91;5050952;28;20221;-81
2021/11/18 11:24:11;;;;;;;2.80;2.60;;;;;;;12.54;51.37;100583.94;5098593;28;20232;-80
2021/11/18 11:27:13;;;;;;;3.03;2.73;;;;;;;12.68;51.49;100594.47;5087102;28;20343;-80
2021/11/18 11:29:49;;;;;;;3.03;2.73;;;;;;;12.58;51.43;100598.59;5087587;28;20248;-80
2021/11/18 11:32:52;;;;;;;3.30;3.00;;;;;;;12.71;51.74;100601.28;5072063;28;20315;-81
2021/11/18 11:35:42;;;;;;;3.53;3.10;;;;;;;12.63;51.08;100604.19;5070739;28;20227;-80
2021/11/18 11:38:30;;;;;;;5.33;3.57;;;;;;;12.34;51.47;100586.63;5086512;28;20244;-80
2021/11/18 11:41:11;;;;;;;4.00;3.60;;;;;;;12.57;51.26;100599.63;5088262;28;20232;-80
2021/11/18 11:43:40;;;;;;;5.00;3.93;;;;;;;12.71;51.14;100606.66;5051208;28;20224;-80
2021/11/18 11:46:54;;;;;;;4.93;4.10;;;;;;;12.65;51.26;100605.63;5080351;28;20223;-80
2021/11/18 11:49:33;;;;;;;4.37;3.97;;;;;;;12.69;51.31;100612.22;5084457;28;20266;-80
2021/11/18 11:52:27;;;;;;;5.43;4.53;;;;;;;12.49;51.38;100613.31;5086462;28;20290;-80
2021/11/18 11:54:57;;;;;;;5.33;4.63;;;;;;;12.44;51.57;100607.72;5086777;28;20611;-80
2021/11/18 11:57:26;;;;;;;5.17;4.40;;;;;;;12.49;51.93;100605.25;5070219;28;20216;-80
2021/11/18 12:00:05;;;;;;;5.57;4.70;;;;;;;12.33;51.71;100609.16;5103204;28;20618;-80
2021/11/18 12:02:48;;;;;;;5.00;4.30;;;;;;;12.30;52.31;100599.66;5087265;28;20223;-80
2021/11/18 12:05:23;;;;;;;5.10;4.57;;;;;;;12.36;52.68;100587.28;5086683;28;20306;-80
2021/11/18 12:08:36;;;;;;;4.80;4.40;;;;;;;12.45;52.21;100580.66;5070312;28;20253;-80
2021/11/18 12:11:14;;;;;;;5.60;4.97;;;;;;;12.39;51.99;100568.03;5066618;28;20610;-80
2021/11/18 12:14:13;;;;;;;5.10;4.60;;;;;;;12.17;52.46;100586.25;5103885;28;20299;-81